| time (UTC) | temp F | wind direction | speed knots | gust knots | rain 1hr in | rain 24hr in | rain mn in | humidity % | barometer mb |
| 20260906213039 | 85 | 119 | 6.1 | 11.3 | 0.00 | 0.00 | 0.00 | 38 | 979.5 |
| 20260906211536 | 86 | 117 | 2.6 | 11.3 | 0.00 | 0.00 | 0.00 | 40 | 979.7 |
| 20260906210041 | 87 | 126 | 5.2 | 10.4 | 0.00 | 0.00 | 0.00 | 39 | 979.9 |
| 20260906204533 | 86 | 138 | 6.1 | 12.2 | 0.00 | 0.00 | 0.00 | 40 | 980.0 |
| 20260906203031 | 86 | 131 | 2.6 | 9.6 | 0.00 | 0.00 | 0.00 | 40 | 980.0 |
| 20260906201531 | 86 | 360 | 6.1 | 13.0 | 0.00 | 0.00 | 0.00 | 38 | 980.0 |
| 20260906200027 | 85 | 360 | 6.1 | 10.4 | 0.00 | 0.00 | 0.00 | 39 | 980.2 |
| 20260906194525 | 85 | 126 | 3.5 | 9.6 | 0.00 | 0.00 | 0.00 | 40 | 980.4 |
| 20260906193022 | 84 | 130 | 2.6 | 9.6 | 0.00 | 0.00 | 0.00 | 43 | 980.7 |
| 20260906191520 | 84 | 113 | 1.7 | 5.2 | 0.00 | 0.00 | 0.00 | 41 | 980.9 |
| 20260906190015 | 84 | 83 | 3.5 | 7.0 | 0.00 | 0.00 | 0.00 | 43 | 981.0 |
| 20260906184522 | 83 | 128 | 7.0 | 11.3 | 0.00 | 0.00 | 0.00 | 42 | 981.3 |
| 20260906183013 | 83 | 119 | 3.5 | 7.8 | 0.00 | 0.00 | 0.00 | 40 | 981.6 |
| 20260906181517 | 84 | 115 | 0.0 | 5.2 | 0.00 | 0.00 | 0.00 | 41 | 981.9 |
| 20260906180006 | 83 | 45 | 1.7 | 6.1 | 0.00 | 0.00 | 0.00 | 42 | 982.0 |
| 20260906174504 | 82 | 132 | 2.6 | 7.0 | 0.00 | 0.00 | 0.00 | 43 | 982.1 |
| 20260906173002 | 82 | 294 | 0.9 | 4.3 | 0.00 | 0.00 | 0.00 | 45 | 982.3 |
| 20260906171600 | 81 | 255 | 1.7 | 4.3 | 0.00 | 0.00 | 0.00 | 46 | 982.5 |
| 20260906170100 | 80 | 194 | 1.7 | 6.1 | 0.00 | 0.00 | 0.00 | 48 | 982.6 |
| 20260906164554 | 79 | 360 | 0.9 | 3.5 | 0.00 | 0.00 | 0.00 | 50 | 982.6 |
| 20260906163054 | 78 | 269 | 0.9 | 4.3 | 0.00 | 0.00 | 0.00 | 51 | 982.7 |
| 20260906161548 | 77 | 262 | 0.0 | 3.5 | 0.00 | 0.00 | 0.00 | 53 | 982.9 |
| 20260906160045 | 76 | 263 | 0.9 | 3.5 | 0.00 | 0.00 | 0.00 | 53 | 983.1 |
| 20260906154540 | 74 | 294 | 0.9 | 4.3 | 0.00 | 0.00 | 0.00 | 56 | 983.1 |
| 20260906153040 | 72 | 264 | 1.7 | 4.3 | 0.00 | 0.00 | 0.00 | 59 | 983.1 |
| 20260906151533 | 70 | 298 | 0.9 | 3.5 | 0.00 | 0.00 | 0.00 | 61 | 983.1 |
| 20260906150033 | 68 | 360 | 1.7 | 4.3 | 0.00 | 0.00 | 0.00 | 62 | 983.3 |
| 20260906144528 | 67 | 273 | 1.7 | 3.5 | 0.00 | 0.00 | 0.00 | 63 | 983.4 |
| 20260906143029 | 65 | 236 | 0.9 | 3.5 | 0.00 | 0.00 | 0.00 | 65 | 983.2 |
| 20260906141526 | 63 | 226 | 0.0 | 2.6 | 0.00 | 0.00 | 0.00 | 66 | 983.2 |
| 20260906140039 | 61 | 360 | 0.0 | 1.7 | 0.00 | 0.00 | 0.00 | 71 | 983.0 |
| 20260906134525 | 59 | 226 | 0.0 | 1.7 | 0.00 | 0.00 | 0.00 | 78 | 982.9 |
| 20260906133022 | 57 | 360 | 0.0 | 1.7 | 0.00 | 0.00 | 0.00 | 81 | 982.8 |
| 20260906131526 | 56 | 360 | 0.0 | 0.0 | 0.00 | 0.00 | 0.00 | 82 | 982.5 |
| 20260906130020 | 56 | 360 | 0.0 | 0.9 | 0.00 | 0.00 | 0.00 | 83 | 982.4 |
| 20260906124519 | 55 | 360 | 0.0 | 1.7 | 0.00 | 0.00 | 0.00 | 83 | 982.3 |
| 20260906123018 | 55 | 174 | 0.0 | 0.0 | 0.00 | 0.00 | 0.00 | 82 | 982.5 |
| 20260906121515 | 56 | 174 | 0.0 | 0.0 | 0.00 | 0.00 | 0.00 | 82 | 982.1 |
| 20260906120019 | 56 | 174 | 0.0 | 0.0 | 0.00 | 0.00 | 0.00 | 81 | 982.0 |
| 20260906114521 | 56 | 174 | 0.0 | 0.0 | 0.00 | 0.00 | 0.00 | 81 | 982.0 |
| 20260906113009 | 56 | 174 | 0.0 | 0.0 | 0.00 | 0.00 | 0.00 | 80 | 982.0 |
| 20260906111508 | 57 | 174 | 0.0 | 0.0 | 0.00 | 0.00 | 0.00 | 80 | 981.9 |
| 20260906110005 | 57 | 174 | 0.0 | 0.0 | 0.00 | 0.00 | 0.00 | 79 | 982.0 |
| 20260906104503 | 58 | 173 | 0.0 | 0.0 | 0.00 | 0.00 | 0.00 | 78 | 981.9 |
| 20260906103100 | 58 | 173 | 0.0 | 0.0 | 0.00 | 0.00 | 0.00 | 79 | 981.9 |
| 20260906101600 | 59 | 173 | 0.0 | 0.0 | 0.00 | 0.00 | 0.00 | 77 | 981.7 |
| 20260906100056 | 59 | 173 | 0.0 | 0.0 | 0.00 | 0.00 | 0.00 | 76 | 981.5 |
| 20260906094606 | 60 | 173 | 0.0 | 0.0 | 0.00 | 0.00 | 0.00 | 75 | 981.5 |
| 20260906093100 | 60 | 173 | 0.0 | 0.0 | 0.00 | 0.00 | 0.00 | 73 | 981.6 |
| 20260906091547 | 62 | 173 | 0.0 | 0.0 | 0.00 | 0.00 | 0.00 | 72 | 981.5 |
| 20260906090108 | 63 | 173 | 0.0 | 0.0 | 0.00 | 0.00 | 0.00 | 70 | 981.6 |
| 20260906084541 | 64 | 173 | 0.0 | 0.0 | 0.00 | 0.00 | 0.00 | 68 | 981.4 |
| 20260906083041 | 64 | 173 | 0.0 | 0.0 | 0.00 | 0.00 | 0.00 | 68 | 981.4 |
| 20260906081535 | 65 | 173 | 0.0 | 0.0 | 0.00 | 0.00 | 0.00 | 67 | 981.3 |
| 20260906080032 | 65 | 174 | 0.0 | 0.9 | 0.00 | 0.00 | 0.00 | 66 | 981.2 |
| 20260906074536 | 66 | 173 | 0.0 | 0.0 | 0.00 | 0.00 | 0.00 | 64 | 981.3 |
| 20260906073026 | 67 | 173 | 0.0 | 1.7 | 0.00 | 0.00 | 0.00 | 63 | 981.3 |
| 20260906071525 | 68 | 173 | 0.0 | 0.0 | 0.00 | 0.00 | 0.00 | 62 | 981.5 |
| 20260906070023 | 68 | 173 | 0.0 | 1.7 | 0.00 | 0.00 | 0.00 | 61 | 981.4 |
| 20260906064521 | 69 | 246 | 0.9 | 2.6 | 0.00 | 0.00 | 0.00 | 61 | 981.2 |
| 20260906063020 | 69 | 247 | 0.0 | 2.6 | 0.00 | 0.00 | 0.00 | 62 | 981.1 |
| 20260906061519 | 68 | 248 | 0.0 | 1.7 | 0.00 | 0.00 | 0.00 | 63 | 981.1 |
| 20260906060014 | 68 | 248 | 0.0 | 0.0 | 0.00 | 0.00 | 0.00 | 65 | 981.0 |
| 20260906054514 | 68 | 248 | 0.0 | 0.9 | 0.00 | 0.00 | 0.00 | 66 | 981.0 |
| 20260906053019 | 68 | 248 | 0.9 | 2.6 | 0.00 | 0.00 | 0.00 | 66 | 981.0 |
| 20260906051513 | 69 | 247 | 0.0 | 2.6 | 0.00 | 0.00 | 0.00 | 65 | 980.8 |
| 20260906050012 | 69 | 248 | 0.0 | 0.9 | 0.00 | 0.00 | 0.00 | 64 | 980.9 |
| 20260906044512 | 71 | 228 | 0.0 | 2.6 | 0.00 | 0.00 | 0.00 | 63 | 981.0 |
| 20260906043015 | 72 | 227 | 0.0 | 2.6 | 0.00 | 0.00 | 0.00 | 62 | 980.8 |
| 20260906041512 | 72 | 196 | 0.9 | 2.6 | 0.00 | 0.00 | 0.00 | 62 | 980.9 |
| 20260906040010 | 73 | 192 | 1.7 | 7.8 | 0.00 | 0.00 | 0.00 | 61 | 980.6 |
| 20260906034513 | 73 | 102 | 0.9 | 7.0 | 0.00 | 0.00 | 0.00 | 60 | 980.8 |
| 20260906033010 | 74 | 198 | 2.6 | 6.1 | 0.00 | 0.00 | 0.00 | 58 | 980.7 |
| 20260906031509 | 75 | 123 | 1.7 | 7.8 | 0.00 | 0.00 | 0.00 | 57 | 980.5 |
| 20260906030008 | 75 | 233 | 2.6 | 7.8 | 0.00 | 0.00 | 0.00 | 55 | 980.3 |
| 20260906024507 | 76 | 194 | 2.6 | 11.3 | 0.00 | 0.00 | 0.00 | 54 | 980.1 |
| 20260906023007 | 77 | 360 | 5.2 | 13.9 | 0.00 | 0.00 | 0.00 | 53 | 979.9 |
| 20260906021506 | 77 | 360 | 6.1 | 13.0 | 0.00 | 0.00 | 0.00 | 50 | 979.9 |
| 20260906020005 | 77 | 360 | 4.3 | 8.7 | 0.00 | 0.00 | 0.00 | 44 | 979.8 |
| 20260906014510 | 77 | 122 | 2.6 | 7.8 | 0.00 | 0.00 | 0.00 | 43 | 979.7 |
| 20260906013004 | 78 | 360 | 4.3 | 8.7 | 0.00 | 0.00 | 0.00 | 42 | 979.5 |
| 20260906011503 | 79 | 115 | 2.6 | 7.0 | 0.00 | 0.00 | 0.00 | 41 | 979.5 |
| 20260906010005 | 81 | 110 | 2.6 | 10.4 | 0.00 | 0.00 | 0.00 | 39 | 979.5 |
| 20260906004502 | 84 | 132 | 6.1 | 10.4 | 0.00 | 0.00 | 0.00 | 35 | 979.6 |
| 20260906003002 | 85 | 196 | 0.0 | 2.6 | 0.00 | 0.00 | 0.00 | 29 | 979.2 |
| 20260906001501 | 86 | 360 | 0.0 | 2.6 | 0.00 | 0.00 | 0.00 | 29 | 979.2 |
| 20260906000101 | 87 | 360 | 0.0 | 2.6 | 0.00 | 0.00 | 0.00 | 29 | 979.2 |
| 20260905234603 | 88 | 101 | 1.7 | 3.5 | 0.00 | 0.00 | 0.00 | 27 | 979.1 |
| 20260905233102 | 89 | 141 | 0.9 | 3.5 | 0.00 | 0.00 | 0.00 | 27 | 979.0 |
| 20260905231601 | 87 | 159 | 0.9 | 4.3 | 0.00 | 0.00 | 0.00 | 29 | 978.9 |
| 20260905230108 | 86 | 360 | 1.7 | 3.5 | 0.00 | 0.00 | 0.00 | 29 | 979.1 |
| 20260905224559 | 86 | 117 | 0.9 | 7.0 | 0.00 | 0.00 | 0.00 | 29 | 978.9 |
| 20260905223058 | 88 | 360 | 3.5 | 6.1 | 0.00 | 0.00 | 0.00 | 27 | 978.9 |
| 20260905221557 | 88 | 159 | 0.0 | 4.3 | 0.00 | 0.00 | 0.00 | 28 | 978.8 |
| 20260905220055 | 90 | 127 | 3.5 | 7.0 | 0.00 | 0.00 | 0.00 | 26 | 978.9 |
| 20260905214553 | 90 | 126 | 1.7 | 4.3 | 0.00 | 0.00 | 0.00 | 26 | 979.1 |
| 20260905213056 | 89 | 360 | 2.6 | 6.1 | 0.00 | 0.00 | 0.00 | 27 | 979.2 |